sensor_id;sensor_type;location;lat;lon;timestamp;P1;P2;P0
76238;PMS7003;65043;48.392;-4.472;2023-04-25T00:00:57;5.00;4.75;2.75
76238;PMS7003;65043;48.392;-4.472;2023-04-25T00:03:23;6.25;4.75;4.00
76238;PMS7003;65043;48.392;-4.472;2023-04-25T00:05:50;5.00;3.75;3.00
76238;PMS7003;65043;48.392;-4.472;2023-04-25T00:08:16;4.25;3.75;3.00
76238;PMS7003;65043;48.392;-4.472;2023-04-25T00:10:42;7.00;5.50;4.00
76238;PMS7003;65043;48.392;-4.472;2023-04-25T00:13:08;6.75;5.00;4.50
76238;PMS7003;65043;48.392;-4.472;2023-04-25T00:15:34;5.00;4.00;3.75
76238;PMS7003;65043;48.392;-4.472;2023-04-25T00:18:01;8.00;6.00;4.00
76238;PMS7003;65043;48.392;-4.472;2023-04-25T00:20:26;9.00;6.25;4.25
76238;PMS7003;65043;48.392;-4.472;2023-04-25T00:22:51;6.00;4.50;4.00
76238;PMS7003;65043;48.392;-4.472;2023-04-25T00:25:20;7.00;6.25;4.00
76238;PMS7003;65043;48.392;-4.472;2023-04-25T00:27:46;7.00;6.75;4.00
76238;PMS7003;65043;48.392;-4.472;2023-04-25T00:30:11;6.00;5.00;4.00
76238;PMS7003;65043;48.392;-4.472;2023-04-25T00:32:37;6.75;5.25;4.00
76238;PMS7003;65043;48.392;-4.472;2023-04-25T00:35:05;5.75;5.75;4.00
76238;PMS7003;65043;48.392;-4.472;2023-04-25T00:37:31;9.75;6.50;5.00
76238;PMS7003;65043;48.392;-4.472;2023-04-25T00:39:57;8.50;7.50;5.75
76238;PMS7003;65043;48.392;-4.472;2023-04-25T00:42:23;4.75;3.50;3.00
76238;PMS7003;65043;48.392;-4.472;2023-04-25T00:44:50;8.25;5.75;4.00
76238;PMS7003;65043;48.392;-4.472;2023-04-25T00:47:17;7.25;5.50;4.00
76238;PMS7003;65043;48.392;-4.472;2023-04-25T00:49:43;7.75;4.50;3.50
76238;PMS7003;65043;48.392;-4.472;2023-04-25T00:52:08;6.00;6.00;5.00
76238;PMS7003;65043;48.392;-4.472;2023-04-25T00:54:35;7.00;7.00;4.00
76238;PMS7003;65043;48.392;-4.472;2023-04-25T00:57:00;4.50;4.50;4.00
76238;PMS7003;65043;48.392;-4.472;2023-04-25T00:59:26;5.00;4.00;3.00
76238;PMS7003;65043;48.392;-4.472;2023-04-25T01:01:53;5.00;5.00;3.75
76238;PMS7003;65043;48.392;-4.472;2023-04-25T01:04:18;7.75;7.25;4.75
76238;PMS7003;65043;48.392;-4.472;2023-04-25T01:06:43;6.50;6.50;4.25
76238;PMS7003;65043;48.392;-4.472;2023-04-25T01:09:10;8.25;7.25;6.00
76238;PMS7003;65043;48.392;-4.472;2023-04-25T01:11:35;9.50;8.00;5.50
76238;PMS7003;65043;48.392;-4.472;2023-04-25T01:14:01;8.25;7.50;6.00
76238;PMS7003;65043;48.392;-4.472;2023-04-25T01:16:27;10.00;7.50;6.00
76238;PMS7003;65043;48.392;-4.472;2023-04-25T01:18:52;8.00;8.00;6.00
76238;PMS7003;65043;48.392;-4.472;2023-04-25T01:21:19;9.00;7.00;6.00
76238;PMS7003;65043;48.392;-4.472;2023-04-25T01:23:45;7.50;6.00;3.75
76238;PMS7003;65043;48.392;-4.472;2023-04-25T01:26:12;7.75;6.00;5.00
76238;PMS7003;65043;48.392;-4.472;2023-04-25T01:28:38;7.50;5.00;3.00
76238;PMS7003;65043;48.392;-4.472;2023-04-25T01:31:07;7.75;6.75;4.50
76238;PMS7003;65043;48.392;-4.472;2023-04-25T01:33:33;10.50;8.00;5.00
76238;PMS7003;65043;48.392;-4.472;2023-04-25T01:35:58;8.00;8.00;5.00
76238;PMS7003;65043;48.392;-4.472;2023-04-25T01:38:24;8.50;7.00;4.00
76238;PMS7003;65043;48.392;-4.472;2023-04-25T01:40:50;7.50;6.00;5.00
76238;PMS7003;65043;48.392;-4.472;2023-04-25T01:43:17;7.75;6.75;4.00
76238;PMS7003;65043;48.392;-4.472;2023-04-25T01:45:43;7.50;6.00;4.00
76238;PMS7003;65043;48.392;-4.472;2023-04-25T01:48:09;9.25;7.50;5.00
76238;PMS7003;65043;48.392;-4.472;2023-04-25T01:50:36;7.50;6.25;4.00
76238;PMS7003;65043;48.392;-4.472;2023-04-25T01:53:03;6.00;6.00;4.25
76238;PMS7003;65043;48.392;-4.472;2023-04-25T01:55:29;5.75;5.75;5.00
76238;PMS7003;65043;48.392;-4.472;2023-04-25T01:57:55;10.50;6.00;4.25
76238;PMS7003;65043;48.392;-4.472;2023-04-25T02:00:20;6.00;6.00;5.00
76238;PMS7003;65043;48.392;-4.472;2023-04-25T02:02:46;6.50;5.00;4.00
76238;PMS7003;65043;48.392;-4.472;2023-04-25T02:05:11;9.75;6.00;4.00
76238;PMS7003;65043;48.392;-4.472;2023-04-25T02:07:37;4.75;4.50;3.75
76238;PMS7003;65043;48.392;-4.472;2023-04-25T02:10:02;6.75;6.00;4.75
76238;PMS7003;65043;48.392;-4.472;2023-04-25T02:12:28;8.25;6.75;5.00
76238;PMS7003;65043;48.392;-4.472;2023-04-25T02:14:54;7.00;5.25;4.00
76238;PMS7003;65043;48.392;-4.472;2023-04-25T02:17:19;10.75;6.75;4.00
76238;PMS7003;65043;48.392;-4.472;2023-04-25T02:19:46;5.75;5.75;4.00
76238;PMS7003;65043;48.392;-4.472;2023-04-25T02:22:12;6.50;5.25;4.00
76238;PMS7003;65043;48.392;-4.472;2023-04-25T02:24:37;10.25;9.00;5.75
76238;PMS7003;65043;48.392;-4.472;2023-04-25T02:27:03;9.75;8.00;5.75
76238;PMS7003;65043;48.392;-4.472;2023-04-25T02:29:29;7.50;7.50;5.25
76238;PMS7003;65043;48.392;-4.472;2023-04-25T02:31:54;9.25;8.00;6.00
76238;PMS7003;65043;48.392;-4.472;2023-04-25T02:34:20;9.00;8.00;6.00
76238;PMS7003;65043;48.392;-4.472;2023-04-25T02:36:46;13.00;10.00;6.00
76238;PMS7003;65043;48.392;-4.472;2023-04-25T02:39:13;7.00;7.00;5.00
76238;PMS7003;65043;48.392;-4.472;2023-04-25T02:41:39;12.25;7.00;5.00
76238;PMS7003;65043;48.392;-4.472;2023-04-25T02:44:04;8.50;7.50;5.50
76238;PMS7003;65043;48.392;-4.472;2023-04-25T02:46:29;9.00;7.00;6.00
76238;PMS7003;65043;48.392;-4.472;2023-04-25T02:48:55;10.00;10.00;6.00
76238;PMS7003;65043;48.392;-4.472;2023-04-25T02:51:20;4.25;4.00;3.00
76238;PMS7003;65043;48.392;-4.472;2023-04-25T02:53:46;9.75;8.25;5.00
76238;PMS7003;65043;48.392;-4.472;2023-04-25T02:56:12;8.50;8.25;5.25
76238;PMS7003;65043;48.392;-4.472;2023-04-25T02:58:37;6.75;6.50;5.00
76238;PMS7003;65043;48.392;-4.472;2023-04-25T03:01:02;10.50;8.50;5.75
76238;PMS7003;65043;48.392;-4.472;2023-04-25T03:03:28;9.00;8.75;5.00
76238;PMS7003;65043;48.392;-4.472;2023-04-25T03:05:55;9.00;8.25;6.00
76238;PMS7003;65043;48.392;-4.472;2023-04-25T03:08:21;10.00;8.00;5.00
76238;PMS7003;65043;48.392;-4.472;2023-04-25T03:10:47;13.00;9.25;6.00
76238;PMS7003;65043;48.392;-4.472;2023-04-25T03:13:14;9.00;8.75;6.00
76238;PMS7003;65043;48.392;-4.472;2023-04-25T03:15:40;6.50;5.75;5.00
76238;PMS7003;65043;48.392;-4.472;2023-04-25T03:18:05;7.25;7.25;6.00
76238;PMS7003;65043;48.392;-4.472;2023-04-25T03:20:31;8.50;7.00;5.00
76238;PMS7003;65043;48.392;-4.472;2023-04-25T03:22:56;9.00;8.00;4.75
76238;PMS7003;65043;48.392;-4.472;2023-04-25T03:25:21;10.75;9.75;6.00
76238;PMS7003;65043;48.392;-4.472;2023-04-25T03:27:47;9.75;6.25;4.50
76238;PMS7003;65043;48.392;-4.472;2023-04-25T03:30:12;8.25;8.00;5.00
76238;PMS7003;65043;48.392;-4.472;2023-04-25T03:32:38;6.75;5.00;4.25
76238;PMS7003;65043;48.392;-4.472;2023-04-25T03:35:03;5.75;5.75;5.00
76238;PMS7003;65043;48.392;-4.472;2023-04-25T03:37:30;7.00;7.00;5.00
76238;PMS7003;65043;48.392;-4.472;2023-04-25T03:39:55;8.00;7.00;5.00
76238;PMS7003;65043;48.392;-4.472;2023-04-25T03:42:21;6.75;6.75;5.00
76238;PMS7003;65043;48.392;-4.472;2023-04-25T03:44:48;7.75;6.50;5.00
76238;PMS7003;65043;48.392;-4.472;2023-04-25T03:47:14;7.50;7.50;5.25
76238;PMS7003;65043;48.392;-4.472;2023-04-25T03:49:39;8.00;6.00;4.50
76238;PMS7003;65043;48.392;-4.472;2023-04-25T03:52:04;6.75;6.00;4.00
76238;PMS7003;65043;48.392;-4.472;2023-04-25T03:54:30;10.25;7.00;5.00
76238;PMS7003;65043;48.392;-4.472;2023-04-25T03:56:55;9.00;6.50;4.25
76238;PMS7003;65043;48.392;-4.472;2023-04-25T03:59:20;6.75;6.00;4.00
76238;PMS7003;65043;48.392;-4.472;2023-04-25T04:01:46;9.50;7.00;5.00
76238;PMS7003;65043;48.392;-4.472;2023-04-25T04:04:11;6.75;5.50;5.00
76238;PMS7003;65043;48.392;-4.472;2023-04-25T04:06:37;10.00;6.50;5.00
76238;PMS7003;65043;48.392;-4.472;2023-04-25T04:09:02;6.50;6.50;5.25
76238;PMS7003;65043;48.392;-4.472;2023-04-25T04:11:28;7.75;6.75;5.00
76238;PMS7003;65043;48.392;-4.472;2023-04-25T04:13:53;8.00;6.00;4.00
76238;PMS7003;65043;48.392;-4.472;2023-04-25T04:16:19;9.50;6.00;5.00
76238;PMS7003;65043;48.392;-4.472;2023-04-25T04:18:45;7.50;7.50;5.50
76238;PMS7003;65043;48.392;-4.472;2023-04-25T04:21:11;9.25;7.00;5.00
76238;PMS7003;65043;48.392;-4.472;2023-04-25T04:23:36;8.00;6.25;5.00
76238;PMS7003;65043;48.392;-4.472;2023-04-25T04:26:02;8.00;8.00;5.00
76238;PMS7003;65043;48.392;-4.472;2023-04-25T04:28:28;9.00;8.00;6.00
76238;PMS7003;65043;48.392;-4.472;2023-04-25T04:30:53;9.00;9.00;6.00
76238;PMS7003;65043;48.392;-4.472;2023-04-25T04:33:19;7.75;7.75;6.00
76238;PMS7003;65043;48.392;-4.472;2023-04-25T04:35:44;6.50;6.50;5.00
76238;PMS7003;65043;48.392;-4.472;2023-04-25T04:38:11;8.25;7.50;5.50
76238;PMS7003;65043;48.392;-4.472;2023-04-25T04:40:40;9.00;8.75;5.00
76238;PMS7003;65043;48.392;-4.472;2023-04-25T04:43:06;10.00;8.75;5.25
76238;PMS7003;65043;48.392;-4.472;2023-04-25T04:45:33;8.00;6.50;4.00
76238;PMS7003;65043;48.392;-4.472;2023-04-25T04:47:59;7.75;6.75;4.00
76238;PMS7003;65043;48.392;-4.472;2023-04-25T04:50:24;8.75;6.00;5.00
76238;PMS7003;65043;48.392;-4.472;2023-04-25T04:52:51;6.00;6.00;5.00
76238;PMS7003;65043;48.392;-4.472;2023-04-25T04:55:16;6.00;6.00;4.00
76238;PMS7003;65043;48.392;-4.472;2023-04-25T04:57:42;8.75;8.00;5.00
76238;PMS7003;65043;48.392;-4.472;2023-04-25T05:00:07;5.00;4.00;4.00
76238;PMS7003;65043;48.392;-4.472;2023-04-25T05:02:36;8.50;6.00;4.00
76238;PMS7003;65043;48.392;-4.472;2023-04-25T05:05:03;8.75;7.00;5.25
76238;PMS7003;65043;48.392;-4.472;2023-04-25T05:07:29;6.75;6.75;4.75
76238;PMS7003;65043;48.392;-4.472;2023-04-25T05:09:55;6.75;6.75;4.75
76238;PMS7003;65043;48.392;-4.472;2023-04-25T05:12:20;6.00;5.00;5.00
76238;PMS7003;65043;48.392;-4.472;2023-04-25T05:14:46;7.00;7.00;5.00
76238;PMS7003;65043;48.392;-4.472;2023-04-25T05:17:11;8.75;7.50;5.00
76238;PMS7003;65043;48.392;-4.472;2023-04-25T05:19:36;7.50;7.00;6.00
76238;PMS7003;65043;48.392;-4.472;2023-04-25T05:22:02;5.00;4.50;3.25
76238;PMS7003;65043;48.392;-4.472;2023-04-25T05:24:27;10.00;7.00;5.00
76238;PMS7003;65043;48.392;-4.472;2023-04-25T05:26:53;9.00;7.00;5.00
76238;PMS7003;65043;48.392;-4.472;2023-04-25T05:29:18;10.00;7.00;5.50
76238;PMS7003;65043;48.392;-4.472;2023-04-25T05:31:44;6.00;6.00;3.50
76238;PMS7003;65043;48.392;-4.472;2023-04-25T05:34:10;9.75;8.00;5.00
76238;PMS7003;65043;48.392;-4.472;2023-04-25T05:36:35;10.50;7.50;5.00
76238;PMS7003;65043;48.392;-4.472;2023-04-25T05:39:01;10.25;8.50;6.00
76238;PMS7003;65043;48.392;-4.472;2023-04-25T05:41:28;9.25;8.00;5.25
76238;PMS7003;65043;48.392;-4.472;2023-04-25T05:43:53;13.00;8.50;6.00
76238;PMS7003;65043;48.392;-4.472;2023-04-25T05:46:19;9.25;8.25;5.75
76238;PMS7003;65043;48.392;-4.472;2023-04-25T05:48:44;7.75;7.75;6.00
76238;PMS7003;65043;48.392;-4.472;2023-04-25T05:51:10;8.25;8.25;6.25
76238;PMS7003;65043;48.392;-4.472;2023-04-25T05:53:35;10.75;9.25;7.00
76238;PMS7003;65043;48.392;-4.472;2023-04-25T05:56:01;7.00;7.00;6.75
76238;PMS7003;65043;48.392;-4.472;2023-04-25T05:58:27;8.75;8.75;5.75
76238;PMS7003;65043;48.392;-4.472;2023-04-25T06:00:53;11.25;8.75;6.00
76238;PMS7003;65043;48.392;-4.472;2023-04-25T06:03:19;8.50;6.75;5.25
76238;PMS7003;65043;48.392;-4.472;2023-04-25T06:05:45;8.00;7.00;5.00
76238;PMS7003;65043;48.392;-4.472;2023-04-25T06:08:10;10.75;9.00;6.00
76238;PMS7003;65043;48.392;-4.472;2023-04-25T06:10:36;7.25;7.00;6.00
76238;PMS7003;65043;48.392;-4.472;2023-04-25T06:13:02;11.00;9.00;6.00
76238;PMS7003;65043;48.392;-4.472;2023-04-25T06:15:28;7.75;7.75;6.00
76238;PMS7003;65043;48.392;-4.472;2023-04-25T06:17:53;10.00;10.00;7.00
76238;PMS7003;65043;48.392;-4.472;2023-04-25T06:20:19;10.50;10.00;6.75
76238;PMS7003;65043;48.392;-4.472;2023-04-25T06:22:48;10.00;8.75;6.00
76238;PMS7003;65043;48.392;-4.472;2023-04-25T06:25:14;11.50;10.00;6.00
76238;PMS7003;65043;48.392;-4.472;2023-04-25T06:27:40;7.50;7.25;6.00
76238;PMS7003;65043;48.392;-4.472;2023-04-25T06:30:05;10.00;8.00;6.00
76238;PMS7003;65043;48.392;-4.472;2023-04-25T06:32:31;9.00;8.00;5.50
76238;PMS7003;65043;48.392;-4.472;2023-04-25T06:34:57;9.25;8.75;6.00
76238;PMS7003;65043;48.392;-4.472;2023-04-25T06:37:22;12.25;10.50;7.25
76238;PMS7003;65043;48.392;-4.472;2023-04-25T06:39:48;11.75;8.00;5.00
76238;PMS7003;65043;48.392;-4.472;2023-04-25T06:42:13;9.75;9.00;6.00
76238;PMS7003;65043;48.392;-4.472;2023-04-25T06:44:39;9.00;9.00;6.00
76238;PMS7003;65043;48.392;-4.472;2023-04-25T06:47:05;12.25;11.00;8.25
76238;PMS7003;65043;48.392;-4.472;2023-04-25T06:49:30;10.00;8.25;7.00
76238;PMS7003;65043;48.392;-4.472;2023-04-25T06:51:55;10.25;9.25;6.00
76238;PMS7003;65043;48.392;-4.472;2023-04-25T06:54:21;15.50;10.00;7.00
76238;PMS7003;65043;48.392;-4.472;2023-04-25T06:56:46;9.75;8.75;4.75
76238;PMS7003;65043;48.392;-4.472;2023-04-25T06:59:12;11.25;10.25;5.00
76238;PMS7003;65043;48.392;-4.472;2023-04-25T07:01:38;14.00;11.00;7.00
76238;PMS7003;65043;48.392;-4.472;2023-04-25T07:04:03;10.00;10.00;8.00
76238;PMS7003;65043;48.392;-4.472;2023-04-25T07:06:28;11.50;11.50;9.00
76238;PMS7003;65043;48.392;-4.472;2023-04-25T07:08:54;10.75;9.75;7.00
76238;PMS7003;65043;48.392;-4.472;2023-04-25T07:11:20;9.00;7.50;5.25
76238;PMS7003;65043;48.392;-4.472;2023-04-25T07:13:46;12.00;8.50;5.75
76238;PMS7003;65043;48.392;-4.472;2023-04-25T07:16:11;10.50;9.50;6.00
76238;PMS7003;65043;48.392;-4.472;2023-04-25T07:18:36;12.75;11.00;6.75
76238;PMS7003;65043;48.392;-4.472;2023-04-25T07:21:02;9.25;8.75;6.25
76238;PMS7003;65043;48.392;-4.472;2023-04-25T07:23:27;9.00;9.00;6.00
76238;PMS7003;65043;48.392;-4.472;2023-04-25T07:25:53;14.25;8.75;5.50
76238;PMS7003;65043;48.392;-4.472;2023-04-25T07:28:19;9.50;9.25;7.00
76238;PMS7003;65043;48.392;-4.472;2023-04-25T07:30:44;10.75;8.00;6.00
76238;PMS7003;65043;48.392;-4.472;2023-04-25T07:33:09;8.25;8.00;6.00
76238;PMS7003;65043;48.392;-4.472;2023-04-25T07:35:35;11.00;7.50;5.50
76238;PMS7003;65043;48.392;-4.472;2023-04-25T07:38:01;8.75;8.75;5.25
76238;PMS7003;65043;48.392;-4.472;2023-04-25T07:40:27;9.00;6.75;5.25
76238;PMS7003;65043;48.392;-4.472;2023-04-25T07:42:53;10.00;6.25;5.00
76238;PMS7003;65043;48.392;-4.472;2023-04-25T07:45:18;11.00;10.00;6.25
76238;PMS7003;65043;48.392;-4.472;2023-04-25T07:47:44;8.25;7.50;6.00
76238;PMS7003;65043;48.392;-4.472;2023-04-25T07:50:09;8.50;7.25;5.50
76238;PMS7003;65043;48.392;-4.472;2023-04-25T07:52:35;8.25;7.00;6.00
76238;PMS7003;65043;48.392;-4.472;2023-04-25T07:55:01;7.00;6.75;5.25
76238;PMS7003;65043;48.392;-4.472;2023-04-25T07:57:26;6.75;6.50;5.00
76238;PMS7003;65043;48.392;-4.472;2023-04-25T07:59:52;6.75;6.75;5.50
76238;PMS7003;65043;48.392;-4.472;2023-04-25T08:02:17;12.25;9.75;5.25
76238;PMS7003;65043;48.392;-4.472;2023-04-25T08:04:43;7.00;7.00;5.25
76238;PMS7003;65043;48.392;-4.472;2023-04-25T08:07:08;8.50;8.00;5.75
76238;PMS7003;65043;48.392;-4.472;2023-04-25T08:09:34;6.25;4.25;4.25
76238;PMS7003;65043;48.392;-4.472;2023-04-25T08:12:01;10.25;9.25;5.75
76238;PMS7003;65043;48.392;-4.472;2023-04-25T08:14:27;8.00;8.00;5.00
76238;PMS7003;65043;48.392;-4.472;2023-04-25T08:16:56;7.50;6.00;5.00
76238;PMS7003;65043;48.392;-4.472;2023-04-25T08:19:21;7.25;7.25;5.25
76238;PMS7003;65043;48.392;-4.472;2023-04-25T08:21:47;7.50;7.50;5.00
76238;PMS7003;65043;48.392;-4.472;2023-04-25T08:24:12;6.50;6.50;4.75
76238;PMS7003;65043;48.392;-4.472;2023-04-25T08:26:38;9.25;6.75;5.00
76238;PMS7003;65043;48.392;-4.472;2023-04-25T08:29:04;7.25;7.00;4.25
76238;PMS7003;65043;48.392;-4.472;2023-04-25T08:31:30;9.50;7.00;5.00
76238;PMS7003;65043;48.392;-4.472;2023-04-25T08:33:55;6.25;5.00;4.25
76238;PMS7003;65043;48.392;-4.472;2023-04-25T08:36:21;5.25;5.00;4.00
76238;PMS7003;65043;48.392;-4.472;2023-04-25T08:38:46;9.00;7.00;5.00
76238;PMS7003;65043;48.392;-4.472;2023-04-25T08:41:12;6.75;6.75;5.50
76238;PMS7003;65043;48.392;-4.472;2023-04-25T08:43:38;8.25;5.25;4.00
76238;PMS7003;65043;48.392;-4.472;2023-04-25T08:46:07;7.50;6.00;4.75
76238;PMS7003;65043;48.392;-4.472;2023-04-25T08:48:33;12.25;9.25;5.75
76238;PMS7003;65043;48.392;-4.472;2023-04-25T08:51:01;6.75;6.75;5.50
76238;PMS7003;65043;48.392;-4.472;2023-04-25T08:53:32;9.00;7.25;5.75
76238;PMS7003;65043;48.392;-4.472;2023-04-25T08:55:58;9.25;7.00;4.25
76238;PMS7003;65043;48.392;-4.472;2023-04-25T08:58:26;12.00;8.75;5.75
76238;PMS7003;65043;48.392;-4.472;2023-04-25T09:00:52;8.00;7.00;5.00
76238;PMS7003;65043;48.392;-4.472;2023-04-25T09:03:18;7.00;6.75;5.00
76238;PMS7003;65043;48.392;-4.472;2023-04-25T09:05:43;8.00;8.00;5.50
76238;PMS7003;65043;48.392;-4.472;2023-04-25T09:08:09;6.75;6.75;6.00
76238;PMS7003;65043;48.392;-4.472;2023-04-25T09:10:35;7.75;5.75;4.00
76238;PMS7003;65043;48.392;-4.472;2023-04-25T09:13:05;7.50;7.00;5.25
76238;PMS7003;65043;48.392;-4.472;2023-04-25T09:18:21;9.50;6.25;4.00
76238;PMS7003;65043;48.392;-4.472;2023-04-25T09:21:06;7.50;7.00;4.75
76238;PMS7003;65043;48.392;-4.472;2023-04-25T09:23:38;7.00;7.00;4.75
76238;PMS7003;65043;48.392;-4.472;2023-04-25T09:26:06;5.25;5.25;4.25
76238;PMS7003;65043;48.392;-4.472;2023-04-25T09:28:32;7.00;5.67;4.00
76238;PMS7003;65043;48.392;-4.472;2023-04-25T09:31:00;7.00;5.00;4.00
76238;PMS7003;65043;48.392;-4.472;2023-04-25T09:33:29;6.25;6.00;4.00
76238;PMS7003;65043;48.392;-4.472;2023-04-25T09:36:03;7.00;6.00;4.25
76238;PMS7003;65043;48.392;-4.472;2023-04-25T09:38:49;7.25;5.00;4.25
76238;PMS7003;65043;48.392;-4.472;2023-04-25T09:41:15;6.75;5.25;4.00
76238;PMS7003;65043;48.392;-4.472;2023-04-25T09:43:48;6.00;6.00;4.00
76238;PMS7003;65043;48.392;-4.472;2023-04-25T09:46:15;7.25;7.00;5.00
76238;PMS7003;65043;48.392;-4.472;2023-04-25T09:48:47;6.50;6.50;5.00
76238;PMS7003;65043;48.392;-4.472;2023-04-25T09:51:15;8.25;8.25;5.00
76238;PMS7003;65043;48.392;-4.472;2023-04-25T09:53:44;8.75;5.75;4.00
76238;PMS7003;65043;48.392;-4.472;2023-04-25T09:56:12;7.75;7.25;4.50
76238;PMS7003;65043;48.392;-4.472;2023-04-25T09:58:41;8.75;5.00;3.50
76238;PMS7003;65043;48.392;-4.472;2023-04-25T10:01:07;9.00;7.00;5.00
76238;PMS7003;65043;48.392;-4.472;2023-04-25T10:03:35;8.75;5.25;4.25
76238;PMS7003;65043;48.392;-4.472;2023-04-25T10:06:07;6.00;6.00;4.75
76238;PMS7003;65043;48.392;-4.472;2023-04-25T10:08:37;6.50;6.00;5.00
76238;PMS7003;65043;48.392;-4.472;2023-04-25T10:11:04;9.00;7.00;6.00
76238;PMS7003;65043;48.392;-4.472;2023-04-25T10:13:32;8.25;8.25;5.25
76238;PMS7003;65043;48.392;-4.472;2023-04-25T10:15:59;8.25;7.50;5.00
76238;PMS7003;65043;48.392;-4.472;2023-04-25T10:18:26;6.00;5.75;4.00
76238;PMS7003;65043;48.392;-4.472;2023-04-25T10:20:57;9.50;7.00;4.75
76238;PMS7003;65043;48.392;-4.472;2023-04-25T10:23:24;8.50;7.00;5.00
76238;PMS7003;65043;48.392;-4.472;2023-04-25T10:25:50;7.75;7.00;5.25
76238;PMS7003;65043;48.392;-4.472;2023-04-25T10:28:17;7.25;6.75;5.75
76238;PMS7003;65043;48.392;-4.472;2023-04-25T10:33:37;8.25;8.25;5.00
76238;PMS7003;65043;48.392;-4.472;2023-04-25T10:38:38;8.00;7.25;4.25
76238;PMS7003;65043;48.392;-4.472;2023-04-25T10:41:05;5.75;5.75;5.00
76238;PMS7003;65043;48.392;-4.472;2023-04-25T10:46:00;6.25;5.00;4.25
76238;PMS7003;65043;48.392;-4.472;2023-04-25T10:48:29;7.75;6.00;5.00
76238;PMS7003;65043;48.392;-4.472;2023-04-25T10:51:11;7.00;6.75;5.00
76238;PMS7003;65043;48.392;-4.472;2023-04-25T10:53:40;6.00;6.00;4.00
76238;PMS7003;65043;48.392;-4.472;2023-04-25T10:56:27;8.75;6.50;4.00
76238;PMS7003;65043;48.392;-4.472;2023-04-25T10:59:02;7.50;6.25;5.25
76238;PMS7003;65043;48.392;-4.472;2023-04-25T11:01:35;8.50;7.75;5.00
76238;PMS7003;65043;48.392;-4.472;2023-04-25T11:04:02;8.25;7.00;5.75
76238;PMS7003;65043;48.392;-4.472;2023-04-25T11:09:10;6.25;5.00;4.75
76238;PMS7003;65043;48.392;-4.472;2023-04-25T11:11:39;9.50;7.00;5.25
76238;PMS7003;65043;48.392;-4.472;2023-04-25T11:14:05;6.50;5.25;4.00
76238;PMS7003;65043;48.392;-4.472;2023-04-25T11:16:30;8.50;5.25;4.00
76238;PMS7003;65043;48.392;-4.472;2023-04-25T11:18:57;7.00;7.00;4.25
76238;PMS7003;65043;48.392;-4.472;2023-04-25T11:21:25;6.25;5.50;5.00
76238;PMS7003;65043;48.392;-4.472;2023-04-25T11:23:52;5.00;5.00;4.00
76238;PMS7003;65043;48.392;-4.472;2023-04-25T11:26:19;4.75;4.00;3.50
76238;PMS7003;65043;48.392;-4.472;2023-04-25T11:28:45;8.75;7.75;5.50
76238;PMS7003;65043;48.392;-4.472;2023-04-25T11:31:12;8.00;6.75;4.75
76238;PMS7003;65043;48.392;-4.472;2023-04-25T11:33:37;7.50;6.75;5.25
76238;PMS7003;65043;48.392;-4.472;2023-04-25T11:36:03;6.25;4.25;3.25
76238;PMS7003;65043;48.392;-4.472;2023-04-25T11:38:28;5.50;4.75;2.75
76238;PMS7003;65043;48.392;-4.472;2023-04-25T11:40:54;7.25;6.25;4.50
76238;PMS7003;65043;48.392;-4.472;2023-04-25T11:43:20;6.50;6.50;4.75
76238;PMS7003;65043;48.392;-4.472;2023-04-25T11:45:50;4.00;4.00;3.75
76238;PMS7003;65043;48.392;-4.472;2023-04-25T11:48:16;5.25;5.25;4.00
76238;PMS7003;65043;48.392;-4.472;2023-04-25T11:50:42;5.75;5.75;4.00
76238;PMS7003;65043;48.392;-4.472;2023-04-25T11:53:08;6.25;5.50;4.00
76238;PMS7003;65043;48.392;-4.472;2023-04-25T11:55:33;10.50;8.25;4.25
76238;PMS7003;65043;48.392;-4.472;2023-04-25T11:58:00;7.75;6.50;4.25
76238;PMS7003;65043;48.392;-4.472;2023-04-25T12:00:26;6.00;6.00;5.00
76238;PMS7003;65043;48.392;-4.472;2023-04-25T12:02:52;9.00;6.50;5.00
76238;PMS7003;65043;48.392;-4.472;2023-04-25T12:05:19;9.00;7.00;4.75
76238;PMS7003;65043;48.392;-4.472;2023-04-25T12:07:45;5.50;5.50;4.50
76238;PMS7003;65043;48.392;-4.472;2023-04-25T12:10:12;5.00;5.00;4.00
76238;PMS7003;65043;48.392;-4.472;2023-04-25T12:12:42;6.75;5.00;4.00
76238;PMS7003;65043;48.392;-4.472;2023-04-25T12:17:36;8.50;7.00;5.00
76238;PMS7003;65043;48.392;-4.472;2023-04-25T12:20:06;6.00;6.00;4.00
76238;PMS7003;65043;48.392;-4.472;2023-04-25T12:22:35;6.00;5.75;4.00
76238;PMS7003;65043;48.392;-4.472;2023-04-25T12:25:01;6.75;4.75;4.00
76238;PMS7003;65043;48.392;-4.472;2023-04-25T12:27:30;7.25;6.00;4.00
76238;PMS7003;65043;48.392;-4.472;2023-04-25T12:29:56;7.00;5.50;4.25
76238;PMS7003;65043;48.392;-4.472;2023-04-25T12:32:22;5.50;4.50;3.25
76238;PMS7003;65043;48.392;-4.472;2023-04-25T12:34:48;5.00;5.00;4.00
76238;PMS7003;65043;48.392;-4.472;2023-04-25T12:37:13;5.00;5.00;4.25
76238;PMS7003;65043;48.392;-4.472;2023-04-25T12:39:39;6.00;6.00;4.00
76238;PMS7003;65043;48.392;-4.472;2023-04-25T12:42:04;7.00;7.00;5.00
76238;PMS7003;65043;48.392;-4.472;2023-04-25T12:44:32;6.75;6.75;4.00
76238;PMS7003;65043;48.392;-4.472;2023-04-25T12:46:58;5.00;5.00;4.00
76238;PMS7003;65043;48.392;-4.472;2023-04-25T12:49:24;5.25;5.25;4.25
76238;PMS7003;65043;48.392;-4.472;2023-04-25T12:51:50;5.25;5.25;4.00
76238;PMS7003;65043;48.392;-4.472;2023-04-25T12:54:16;4.00;4.00;4.00
76238;PMS7003;65043;48.392;-4.472;2023-04-25T12:56:42;10.25;6.00;3.75
76238;PMS7003;65043;48.392;-4.472;2023-04-25T12:59:08;8.00;7.50;5.00
76238;PMS7003;65043;48.392;-4.472;2023-04-25T13:01:34;8.50;5.00;4.00
76238;PMS7003;65043;48.392;-4.472;2023-04-25T13:03:59;5.00;5.00;3.00
76238;PMS7003;65043;48.392;-4.472;2023-04-25T13:06:25;5.00;5.00;4.00
76238;PMS7003;65043;48.392;-4.472;2023-04-25T13:08:51;6.50;6.00;4.00
76238;PMS7003;65043;48.392;-4.472;2023-04-25T13:11:17;6.00;5.00;4.00
76238;PMS7003;65043;48.392;-4.472;2023-04-25T13:13:43;4.75;4.75;3.75
76238;PMS7003;65043;48.392;-4.472;2023-04-25T13:16:09;6.25;6.00;4.00
76238;PMS7003;65043;48.392;-4.472;2023-04-25T13:18:35;5.50;5.50;4.00
76238;PMS7003;65043;48.392;-4.472;2023-04-25T13:21:00;4.75;4.75;4.00
76238;PMS7003;65043;48.392;-4.472;2023-04-25T13:23:26;7.50;5.00;4.00
76238;PMS7003;65043;48.392;-4.472;2023-04-25T13:25:53;5.50;5.25;4.25
76238;PMS7003;65043;48.392;-4.472;2023-04-25T13:28:20;5.25;5.00;3.75
76238;PMS7003;65043;48.392;-4.472;2023-04-25T13:30:46;10.50;7.75;5.00
76238;PMS7003;65043;48.392;-4.472;2023-04-25T13:33:12;7.50;5.75;5.00
76238;PMS7003;65043;48.392;-4.472;2023-04-25T13:35:38;9.25;6.75;5.50
76238;PMS7003;65043;48.392;-4.472;2023-04-25T13:38:04;6.75;6.75;5.00
76238;PMS7003;65043;48.392;-4.472;2023-04-25T13:40:29;7.00;7.00;5.25
76238;PMS7003;65043;48.392;-4.472;2023-04-25T13:42:55;8.25;6.00;5.00
76238;PMS7003;65043;48.392;-4.472;2023-04-25T13:45:21;8.00;7.00;5.25
76238;PMS7003;65043;48.392;-4.472;2023-04-25T13:47:47;7.25;7.00;6.00
76238;PMS7003;65043;48.392;-4.472;2023-04-25T13:50:12;9.25;7.75;5.50
76238;PMS7003;65043;48.392;-4.472;2023-04-25T13:52:38;7.75;7.75;6.00
76238;PMS7003;65043;48.392;-4.472;2023-04-25T13:55:04;10.50;9.00;6.00
76238;PMS7003;65043;48.392;-4.472;2023-04-25T13:57:32;7.25;7.00;6.00
76238;PMS7003;65043;48.392;-4.472;2023-04-25T13:59:58;10.25;10.25;7.00
76238;PMS7003;65043;48.392;-4.472;2023-04-25T14:02:24;9.50;9.50;6.00
76238;PMS7003;65043;48.392;-4.472;2023-04-25T14:04:50;8.75;7.00;5.25
76238;PMS7003;65043;48.392;-4.472;2023-04-25T14:07:15;8.50;8.00;6.00
76238;PMS7003;65043;48.392;-4.472;2023-04-25T14:09:44;7.50;7.50;6.00
76238;PMS7003;65043;48.392;-4.472;2023-04-25T14:12:09;9.25;8.75;6.50
76238;PMS7003;65043;48.392;-4.472;2023-04-25T14:14:36;9.75;8.00;5.75
76238;PMS7003;65043;48.392;-4.472;2023-04-25T14:17:01;9.50;6.75;5.00